createdAt,value
2023-12-13T00:04:13.828Z,6.13
2023-12-13T00:09:13.060Z,8.77
2023-12-13T00:14:11.984Z,6.90
2023-12-13T00:19:12.383Z,6.33
2023-12-13T00:24:11.404Z,7.43
2023-12-13T00:29:11.265Z,5.13
2023-12-13T00:34:10.234Z,7.83
2023-12-13T00:39:11.069Z,5.70
2023-12-13T00:44:09.993Z,7.30
2023-12-13T00:49:09.077Z,6.50
2023-12-13T00:54:10.204Z,6.10
2023-12-13T00:59:09.069Z,5.87
2023-12-13T01:04:08.065Z,6.40
2023-12-13T01:09:07.407Z,5.30
2023-12-13T01:14:07.840Z,6.07
2023-12-13T01:19:06.567Z,5.43
2023-12-13T01:24:06.676Z,5.00
2023-12-13T01:29:05.042Z,4.27
2023-12-13T01:34:06.333Z,4.37
2023-12-13T01:39:05.772Z,4.00
2023-12-13T01:44:04.701Z,5.40
2023-12-13T01:49:07.749Z,5.30
2023-12-13T01:54:11.654Z,4.70
2023-12-13T01:59:11.903Z,4.30
2023-12-13T02:04:12.017Z,4.80
2023-12-13T02:09:12.605Z,4.37
2023-12-13T02:14:10.773Z,4.20
2023-12-13T02:19:12.680Z,4.00
2023-12-13T02:24:13.592Z,4.77
2023-12-13T02:29:14.331Z,4.10
2023-12-13T02:34:13.260Z,4.00
2023-12-13T02:39:15.106Z,3.47
2023-12-13T02:44:14.164Z,3.50
2023-12-13T02:49:13.150Z,3.63
2023-12-13T02:54:12.737Z,2.30
2023-12-13T02:59:11.634Z,2.90
2023-12-13T03:04:10.557Z,2.77
2023-12-13T03:09:10.216Z,3.37
2023-12-13T03:14:09.778Z,2.97
2023-12-13T03:19:09.229Z,3.40
2023-12-13T03:24:08.918Z,3.23
2023-12-13T03:29:07.808Z,3.10
2023-12-13T03:34:08.222Z,2.43
2023-12-13T03:39:08.599Z,3.20
2023-12-13T03:44:07.438Z,2.30
2023-12-13T03:49:07.905Z,2.77
2023-12-13T03:54:07.109Z,2.83
2023-12-13T03:59:05.279Z,3.20
2023-12-13T04:05:05.467Z,2.87
2023-12-13T04:10:06.839Z,2.97
2023-12-13T04:15:06.080Z,2.23
2023-12-13T04:20:05.461Z,2.97
2023-12-13T04:25:05.884Z,3.30
2023-12-13T04:30:04.901Z,2.23
2023-12-13T04:35:04.751Z,2.70
2023-12-13T04:40:05.090Z,3.90
2023-12-13T04:45:04.138Z,4.00
2023-12-13T04:50:03.065Z,4.63
2023-12-13T04:55:01.984Z,3.70
2023-12-13T05:00:02.323Z,3.47
2023-12-13T05:05:01.870Z,5.33
2023-12-13T05:10:00.799Z,5.60
2023-12-13T05:14:59.687Z,4.43
2023-12-13T05:20:00.617Z,4.50
2023-12-13T05:24:59.490Z,4.87
2023-12-13T05:29:58.476Z,5.57
2023-12-13T05:34:58.755Z,4.20
2023-12-13T05:39:57.965Z,4.93
2023-12-13T05:44:56.876Z,4.07
2023-12-13T05:49:55.913Z,6.70
2023-12-13T05:54:56.181Z,6.20
2023-12-13T05:59:55.044Z,6.13
2023-12-13T06:04:54.846Z,3.73
2023-12-13T06:09:53.802Z,4.90
2023-12-13T06:14:53.991Z,4.43
2023-12-13T06:19:52.259Z,3.47
2023-12-13T06:24:51.887Z,7.00
2023-12-13T06:29:50.707Z,5.53
2023-12-13T06:34:51.016Z,5.47
2023-12-13T06:39:52.750Z,4.67
2023-12-13T06:44:52.588Z,3.63
2023-12-13T06:49:52.813Z,5.90
2023-12-13T06:54:51.907Z,5.20
2023-12-13T06:59:51.411Z,6.17
2023-12-13T07:04:51.780Z,5.80
2023-12-13T07:09:50.134Z,5.37
2023-12-13T07:14:49.065Z,4.50
2023-12-13T07:19:48.341Z,5.10
2023-12-13T07:24:49.131Z,5.90
2023-12-13T07:29:47.971Z,5.90
2023-12-13T07:34:46.876Z,5.30
2023-12-13T07:39:45.777Z,5.00
2023-12-13T07:44:47.937Z,5.10
2023-12-13T07:49:47.041Z,4.53
2023-12-13T07:54:45.989Z,4.07
2023-12-13T07:59:46.229Z,5.07
2023-12-13T08:04:45.154Z,5.40
2023-12-13T08:09:44.037Z,4.47
2023-12-13T08:14:43.250Z,4.37
2023-12-13T08:19:44.676Z,5.30
2023-12-13T08:24:45.337Z,3.83
2023-12-13T08:29:44.199Z,5.10
2023-12-13T08:34:44.710Z,5.40
2023-12-13T08:39:44.108Z,4.17
2023-12-13T08:44:43.583Z,5.37
2023-12-13T08:49:44.977Z,3.93
2023-12-13T08:54:43.867Z,3.97
2023-12-13T08:59:42.952Z,3.90
2023-12-13T09:04:41.857Z,3.80
2023-12-13T09:16:31.022Z,4.80
2023-12-13T09:21:29.916Z,3.57
2023-12-13T09:26:29.018Z,4.00
2023-12-13T09:31:27.949Z,4.10
2023-12-13T09:36:27.460Z,3.90
2023-12-13T09:41:28.478Z,4.50
2023-12-13T09:46:27.568Z,4.20
2023-12-13T09:59:18.302Z,3.93
2023-12-13T10:11:13.798Z,3.67
2023-12-13T10:16:14.876Z,4.37
2023-12-13T10:21:14.530Z,3.80
2023-12-13T10:26:15.236Z,3.70
2023-12-13T10:31:14.077Z,3.50
2023-12-13T10:36:14.414Z,3.70
2023-12-13T10:41:18.993Z,3.90
2023-12-13T10:46:21.068Z,2.53
2023-12-13T10:58:10.070Z,3.73
2023-12-13T11:03:14.717Z,3.10
2023-12-13T11:14:38.986Z,3.20
2023-12-13T11:19:39.521Z,3.10
2023-12-13T11:24:38.534Z,2.80
2023-12-13T11:29:38.809Z,3.10
2023-12-13T11:34:40.863Z,3.30
2023-12-13T11:39:40.653Z,3.27
2023-12-13T11:44:42.218Z,3.57
2023-12-13T11:49:41.640Z,3.50
2023-12-13T11:54:40.528Z,3.13
2023-12-13T11:59:41.417Z,3.03
2023-12-13T12:04:40.793Z,3.40
2023-12-13T12:09:39.742Z,2.90
2023-12-13T12:14:38.599Z,3.30
2023-12-13T12:19:38.874Z,2.70
2023-12-13T12:24:38.627Z,3.00
2023-12-13T12:29:37.774Z,3.10
2023-12-13T12:34:39.174Z,3.40
2023-12-13T12:39:38.141Z,3.17
2023-12-13T12:44:37.761Z,2.87
2023-12-13T12:49:37.985Z,3.50
2023-12-13T12:54:36.467Z,3.77
2023-12-13T12:59:35.369Z,3.60
2023-12-13T13:04:34.451Z,3.20
2023-12-13T13:09:34.061Z,3.20
2023-12-13T13:14:32.895Z,3.30
2023-12-13T13:19:31.886Z,2.77
2023-12-13T13:24:30.792Z,3.00
2023-12-13T13:36:22.201Z,2.00
2023-12-13T13:41:21.188Z,2.93
2023-12-13T13:46:21.042Z,2.63
2023-12-13T13:51:21.320Z,2.70
2023-12-13T13:56:24.836Z,2.60
2023-12-13T14:01:26.267Z,2.57
2023-12-13T14:06:27.811Z,2.50
2023-12-13T14:11:26.695Z,3.07
2023-12-13T14:16:24.880Z,3.30
2023-12-13T14:21:23.849Z,2.40
2023-12-13T14:26:24.107Z,2.37
2023-12-13T14:31:25.922Z,2.60
2023-12-13T14:36:26.497Z,2.57
2023-12-13T14:41:28.610Z,2.40
2023-12-13T14:46:27.503Z,2.03
2023-12-13T14:51:26.520Z,2.37
2023-12-13T14:56:27.230Z,2.07
2023-12-13T15:01:26.169Z,1.97
2023-12-13T15:06:25.177Z,2.00
2023-12-13T15:11:24.050Z,3.10
2023-12-13T15:16:24.332Z,3.10
2023-12-13T15:28:18.472Z,2.70
2023-12-13T15:33:19.568Z,2.70
2023-12-13T15:38:18.655Z,2.20
2023-12-13T15:43:17.521Z,2.73
2023-12-13T15:48:17.785Z,3.13
2023-12-13T15:53:16.991Z,2.80
2023-12-13T15:58:16.253Z,1.93
2023-12-13T16:03:15.286Z,3.30
2023-12-13T16:08:15.957Z,3.20
2023-12-13T16:13:15.192Z,3.10
2023-12-13T16:18:14.899Z,2.60
2023-12-13T16:23:15.388Z,3.23
2023-12-13T16:28:14.670Z,2.60
2023-12-13T16:33:14.328Z,3.30
2023-12-13T16:38:14.289Z,1.80
2023-12-13T16:43:15.178Z,2.93
2023-12-13T16:48:14.325Z,2.73
2023-12-13T16:53:13.994Z,3.00
2023-12-13T16:58:12.940Z,3.43
2023-12-13T17:03:12.196Z,2.60
2023-12-13T17:08:11.578Z,2.93
2023-12-13T17:13:12.021Z,2.40
2023-12-13T17:18:10.165Z,2.53
2023-12-13T17:23:09.990Z,3.47
2023-12-13T17:28:09.612Z,2.73
2023-12-13T17:33:09.872Z,2.50
2023-12-13T17:38:08.855Z,3.00
2023-12-13T17:43:07.734Z,2.50
2023-12-13T17:48:07.532Z,2.43
2023-12-13T17:53:07.990Z,2.23
2023-12-13T17:58:07.014Z,2.40
2023-12-13T18:03:06.713Z,1.50
2023-12-13T18:08:07.321Z,1.50
2023-12-13T18:13:06.072Z,2.23
2023-12-13T18:18:05.418Z,3.37
2023-12-13T18:23:05.489Z,2.30
2023-12-13T18:28:06.141Z,2.30
2023-12-13T18:33:05.040Z,1.80
2023-12-13T18:38:04.001Z,2.20
2023-12-13T18:43:02.889Z,2.17
2023-12-13T18:48:03.254Z,2.87
2023-12-13T18:53:02.209Z,2.90
2023-12-13T18:58:01.121Z,2.27
2023-12-13T19:02:59.925Z,2.20
2023-12-13T19:08:02.089Z,3.30
2023-12-13T19:13:01.675Z,2.70
2023-12-13T19:18:00.739Z,3.00
2023-12-13T19:23:01.154Z,2.93
2023-12-13T19:28:00.045Z,2.67
2023-12-13T19:32:59.095Z,2.90
2023-12-13T19:37:58.011Z,2.90
2023-12-13T19:42:59.795Z,3.07
2023-12-13T19:47:58.077Z,2.70
2023-12-13T19:52:58.723Z,3.27
2023-12-13T19:57:58.530Z,2.93
2023-12-13T20:02:58.993Z,3.10
2023-12-13T20:07:57.935Z,2.83
2023-12-13T20:12:58.321Z,3.40
2023-12-13T20:17:56.661Z,2.97
2023-12-13T20:22:55.439Z,3.27
2023-12-13T20:34:13.914Z,3.33
2023-12-13T20:39:13.129Z,3.47
2023-12-13T20:44:13.032Z,3.37
2023-12-13T20:49:13.732Z,3.50
2023-12-13T20:54:12.053Z,3.90
2023-12-13T20:59:43.645Z,3.37
2023-12-13T21:04:43.198Z,3.93
2023-12-13T21:09:43.599Z,4.23
2023-12-13T21:14:42.621Z,4.23
2023-12-13T21:19:42.217Z,4.50
2023-12-13T21:24:41.195Z,4.13
2023-12-13T21:29:39.391Z,4.43
2023-12-13T21:35:39.820Z,4.63
2023-12-13T21:40:40.275Z,3.50
2023-12-13T21:45:39.395Z,3.67
2023-12-13T21:50:38.544Z,3.33
2023-12-13T21:55:37.836Z,3.20
2023-12-13T22:00:38.132Z,3.37
2023-12-13T22:05:37.151Z,3.37
2023-12-13T22:10:36.416Z,2.90
2023-12-13T22:15:36.200Z,2.90
2023-12-13T22:20:36.748Z,3.00
2023-12-13T22:25:39.046Z,3.00
2023-12-13T22:30:37.507Z,2.70
2023-12-13T22:35:38.474Z,3.27
2023-12-13T22:40:36.931Z,2.60
2023-12-13T22:45:36.101Z,3.07
2023-12-13T22:50:36.682Z,4.17
2023-12-13T22:55:36.343Z,3.53
2023-12-13T23:00:35.791Z,3.57
2023-12-13T23:05:34.692Z,3.43
2023-12-13T23:10:33.600Z,3.60
2023-12-13T23:15:34.242Z,3.70
2023-12-13T23:20:33.497Z,3.77
2023-12-13T23:25:32.544Z,4.03
2023-12-13T23:30:31.493Z,3.23
2023-12-13T23:35:31.835Z,4.00
2023-12-13T23:40:30.707Z,3.30
2023-12-13T23:45:28.828Z,4.30
2023-12-13T23:50:28.343Z,3.97
2023-12-13T23:55:28.610Z,3.63
